Charles Town, WV (25414)

10:06 PM EST on February 05, 2016 (GMT -0500)
Vinton Farm | | Change Station
CLOSE
Current Station
Personal Weather Station
Location: Charles Town, WV
Elevation: 522 ft
Nearby Weather Stations

Elev 522 ft 39.27 °N, 77.86 °W | Updated 21 seconds ago

Clear
Clear
30.4 °F
Feels Like 30 °F
N
1.8
Wind Variable Wind from NNW
Gusts 2.5 mph

Today
High -- | Low -- °F
--% Chance of Precip.
Yesterday
High -- | Low -- °F
Precip. -- in
Pressure 30.40 in
Visibility 10.0 miles
Clouds Clear
Windchill 30 °F
Dew Point 14 °F
Humidity 49%
Rainfall 0.00 in
Snow Depth Not available.
7:15 AM 5:36 PM
Waning Crescent, 8% visible
METAR KMRB 060253Z 00000KT 10SM CLR M04/M09 A3037 RMK AO2 SLP292 T10391089 51002
Pressure 30.40 in
Visibility 10.0 miles
Clouds Clear
Windchill 30 °F
Dew Point 14 °F
Humidity 49%
Rainfall 0.00 in
Snow Depth Not available.
7:15 AM 5:36 PM
Waning Crescent, 8% visible
METAR KMRB 060253Z 00000KT 10SM CLR M04/M09 A3037 RMK AO2 SLP292 T10391089 51002

10-Day Weather Forecast

Almanac

Astronomy

Feb. 05, 2016 Rise Set
Actual Time
Civil Twilight
Nautical Twilight
Astronomical Twilight
Moon
Length of Visible Light
Length of Day
Tomorrow will be .
, % of the Moon is Illuminated

Today's Extremes

State Highs State Lows

Community

WunderPhotos

Upload Photos

1,890,915 photos uploaded!

WunderBlog® & News

Nearby

Air Quality

  Air Quality AQ Index Pollutant
Not available.

Snow Depth

Station Depth Elevation

Earthquake Activity

City Distance Mag. Time & Date
Minimum magnitude displayed is 2.5.

Coastal Water Temperatures

Place Temperature

Stations

Nearby Weather Stations

Station Location Temp. Windchill Dew Point Humidity Wind Precip. Elev Updated Type
                   

Watches & Warnings

There are currently no watches in effect.